Time;durP1;ratioP1;P1;durP2;ratioP2;P2;SDS_P1;SDS_P2;PMS_P1;PMS_P2;Temp;Humidity;BMP_temperature;BMP_pressure;BME280_temperature;BME280_humidity;BME280_pressure;Samples;Min_cycle;Max_cycle;Signal;HPM_P1;HPM_P2
2022/03/17 00:01:42;;;;;;;10.10;6.83;;;10.70;99.90;;;;;;5052332;28;20255;-77
2022/03/17 00:04:08;;;;;;;9.23;4.87;;;10.70;99.90;;;;;;5052230;28;20213;-79
2022/03/17 00:06:34;;;;;;;19.43;5.03;;;10.70;99.90;;;;;;5052583;28;20209;-77
2022/03/17 00:09:01;;;;;;;12.33;4.20;;;10.70;99.90;;;;;;5034459;28;20691;-79
2022/03/17 00:11:28;;;;;;;7.93;5.37;;;10.70;99.90;;;;;;5053128;28;20656;-78
2022/03/17 00:13:53;;;;;;;3.00;2.87;;;10.70;99.90;;;;;;5053920;28;20188;-78
2022/03/17 00:16:19;;;;;;;6.07;3.30;;;10.60;99.90;;;;;;5052161;28;20188;-78
2022/03/17 00:18:44;;;;;;;4.90;4.60;;;10.50;99.90;;;;;;5054435;28;20193;-80
2022/03/17 00:21:10;;;;;;;11.47;6.43;;;10.60;99.90;;;;;;5053313;28;20193;-78
2022/03/17 00:23:35;;;;;;;16.97;6.70;;;10.60;99.90;;;;;;5033404;28;20284;-79
2022/03/17 00:26:01;;;;;;;9.37;7.43;;;10.60;99.90;;;;;;5041480;28;20193;-82
2022/03/17 00:28:26;;;;;;;11.07;5.90;;;10.60;99.90;;;;;;5040009;28;20190;-81
2022/03/17 00:30:52;;;;;;;8.07;5.93;;;10.50;99.90;;;;;;5034829;28;20173;-81
2022/03/17 00:33:17;;;;;;;6.27;5.77;;;10.50;99.90;;;;;;5047313;28;20181;-83
2022/03/17 00:35:43;;;;;;;7.63;7.00;;;10.40;99.90;;;;;;5035302;28;20173;-82
2022/03/17 00:38:13;;;;;;;6.53;6.10;;;10.40;99.90;;;;;;5053126;28;20287;-80
2022/03/17 00:40:40;;;;;;;4.50;4.23;;;10.40;99.90;;;;;;5053363;28;20234;-81
2022/03/17 00:43:07;;;;;;;9.40;7.40;;;10.30;99.90;;;;;;5052949;28;20180;-80
2022/03/17 00:45:32;;;;;;;10.67;6.93;;;10.30;99.90;;;;;;5053062;28;20296;-80
2022/03/17 00:47:58;;;;;;;5.23;3.87;;;10.30;99.90;;;;;;5053087;28;20278;-82
2022/03/17 00:50:25;;;;;;;5.67;5.17;;;10.20;99.90;;;;;;5053245;28;20172;-80
2022/03/17 00:52:52;;;;;;;5.27;4.67;;;10.10;99.90;;;;;;5034345;28;20315;-80
2022/03/17 00:55:19;;;;;;;4.63;3.87;;;10.00;99.90;;;;;;5053056;28;20172;-80
2022/03/17 00:57:45;;;;;;;4.00;3.63;;;10.10;99.90;;;;;;5056515;28;20212;-79
2022/03/17 01:00:14;;;;;;;5.60;4.93;;;10.10;99.90;;;;;;5057474;28;20635;-81
2022/03/17 01:02:42;;;;;;;12.40;6.07;;;10.20;99.90;;;;;;5056454;28;20188;-79
2022/03/17 01:05:10;;;;;;;5.77;4.40;;;10.20;99.90;;;;;;5056659;28;20200;-79
2022/03/17 01:07:37;;;;;;;7.90;5.87;;;10.30;99.90;;;;;;5038545;28;21023;-80
2022/03/17 01:10:04;;;;;;;14.37;6.83;;;10.30;99.90;;;;;;5056766;28;20636;-81
2022/03/17 01:12:30;;;;;;;7.40;6.47;;;10.30;99.90;;;;;;5057247;28;20177;-83
2022/03/17 01:14:56;;;;;;;4.70;3.60;;;10.30;99.90;;;;;;5039367;28;20181;-83
2022/03/17 01:17:21;;;;;;;7.23;4.30;;;10.30;99.90;;;;;;5039397;28;20224;-82
2022/03/17 01:19:47;;;;;;;7.90;4.10;;;10.40;99.90;;;;;;5057953;28;20174;-80
2022/03/17 01:22:12;;;;;;;3.43;2.03;;;10.30;99.90;;;;;;5056927;28;20181;-82
2022/03/17 01:24:39;;;;;;;6.70;5.13;;;10.30;99.90;;;;;;5039582;28;20197;-81
2022/03/17 01:27:04;;;;;;;6.70;5.27;;;10.30;99.90;;;;;;5039787;28;20197;-81
2022/03/17 01:29:30;;;;;;;9.07;5.67;;;10.30;99.90;;;;;;5046900;28;20183;-81
2022/03/17 01:31:55;;;;;;;8.63;5.53;;;10.30;99.90;;;;;;5016382;28;20573;-82
2022/03/17 01:34:21;;;;;;;4.90;4.40;;;10.30;99.90;;;;;;5056287;28;20667;-80
2022/03/17 01:36:46;;;;;;;3.60;2.83;;;10.40;99.90;;;;;;5055886;28;20208;-78
2022/03/17 01:39:12;;;;;;;11.90;5.40;;;10.30;99.90;;;;;;5056612;28;20256;-78
2022/03/17 01:41:39;;;;;;;10.50;5.63;;;10.30;99.90;;;;;;5055615;28;20185;-80
2022/03/17 01:44:06;;;;;;;3.83;3.37;;;10.30;99.90;;;;;;5049257;28;20628;-83
2022/03/17 01:47:26;;;;;;;5.93;4.27;;;10.20;99.90;;;;;;5056571;28;20201;-82
2022/03/17 01:49:17;;;;;;;5.17;4.47;;;10.20;99.90;;;;;;5046299;28;20177;-82
2022/03/17 01:51:45;;;;;;;12.43;4.50;;;10.20;99.90;;;;;;5033795;28;20177;-82
2022/03/17 01:54:11;;;;;;;14.33;6.33;;;10.20;99.90;;;;;;5052451;28;20532;-83
2022/03/17 01:56:37;;;;;;;4.67;4.23;;;10.20;99.90;;;;;;5058777;28;20208;-81
2022/03/17 01:59:03;;;;;;;18.87;6.90;;;10.20;99.90;;;;;;5058166;28;20185;-84
2022/03/17 02:01:28;;;;;;;8.37;5.47;;;10.20;99.90;;;;;;5044756;28;20181;-82
2022/03/17 02:03:56;;;;;;;5.77;4.90;;;10.20;99.90;;;;;;5026593;28;20681;-82
2022/03/17 02:06:23;;;;;;;4.70;3.23;;;10.20;99.90;;;;;;5044892;28;20185;-82
2022/03/17 02:08:49;;;;;;;5.17;4.27;;;10.10;99.90;;;;;;5056918;28;20184;-80
2022/03/17 02:13:59;;;;;;;15.43;5.50;;;9.90;99.90;;;;;;5055146;28;20717;-78
2022/03/17 02:16:27;;;;;;;6.37;5.87;;;9.90;99.90;;;;;;5055243;28;20189;-80
2022/03/17 02:18:53;;;;;;;4.80;3.30;;;9.90;99.90;;;;;;5037565;28;20173;-78
2022/03/17 02:21:18;;;;;;;7.73;4.77;;;9.80;99.90;;;;;;5071578;23;20246;-75
2022/03/17 02:26:30;;;;;;;5.23;3.67;;;9.90;99.90;;;;;;5106971;28;20175;-77
2022/03/17 02:28:58;;;;;;;6.70;5.43;;;9.90;99.90;;;;;;5115174;28;20178;-77
2022/03/17 02:31:24;;;;;;;8.53;7.33;;;9.90;99.90;;;;;;5108655;28;20204;-77
2022/03/17 02:33:50;;;;;;;8.57;4.67;;;9.90;99.90;;;;;;5113718;28;20308;-79
2022/03/17 02:36:16;;;;;;;6.23;5.07;;;9.90;99.90;;;;;;5115242;28;20546;-77
2022/03/17 02:38:43;;;;;;;14.23;9.17;;;10.00;99.90;;;;;;5114536;28;20175;-79
2022/03/17 02:41:09;;;;;;;6.07;5.50;;;10.00;99.90;;;;;;5114843;28;20648;-77
2022/03/17 02:43:37;;;;;;;10.63;3.37;;;10.10;99.90;;;;;;5114263;28;20195;-77
2022/03/17 02:46:02;;;;;;;20.97;9.87;;;10.10;99.90;;;;;;5114412;28;20175;-76
2022/03/17 02:48:28;;;;;;;4.87;4.50;;;10.10;99.90;;;;;;5112254;28;20183;-76
2022/03/17 02:50:53;;;;;;;6.57;5.17;;;10.20;99.90;;;;;;5113235;28;20202;-76
2022/03/17 02:53:19;;;;;;;8.47;4.80;;;10.10;99.90;;;;;;5113557;28;20187;-76
2022/03/17 02:55:46;;;;;;;5.00;4.63;;;10.10;99.90;;;;;;5113888;28;20214;-78
2022/03/17 02:58:13;;;;;;;4.43;4.03;;;10.10;99.90;;;;;;5113920;28;20194;-76
2022/03/17 03:00:39;;;;;;;8.90;6.67;;;10.10;99.90;;;;;;5112282;28;20221;-76
2022/03/17 03:03:06;;;;;;;5.50;3.17;;;10.00;99.90;;;;;;5112801;28;20179;-76
2022/03/17 03:05:31;;;;;;;9.67;6.07;;;10.10;99.90;;;;;;5112975;28;20627;-76
2022/03/17 03:07:57;;;;;;;8.27;6.73;;;10.10;99.90;;;;;;5113674;28;20179;-76
2022/03/17 03:10:23;;;;;;;5.77;5.27;;;10.10;99.90;;;;;;5113601;28;20174;-75
2022/03/17 03:12:48;;;;;;;7.97;6.43;;;10.00;99.90;;;;;;5113067;28;20199;-78
2022/03/17 03:15:14;;;;;;;9.43;6.10;;;10.00;99.90;;;;;;5113526;28;20167;-77
2022/03/17 03:17:40;;;;;;;5.60;4.87;;;10.00;99.90;;;;;;5113699;28;20201;-76
2022/03/17 03:20:07;;;;;;;7.23;6.23;;;10.00;99.90;;;;;;5113174;28;20198;-76
2022/03/17 03:22:39;;;;;;;9.73;7.43;;;9.90;99.90;;;;;;5113605;28;20214;-78
2022/03/17 03:25:06;;;;;;;15.50;6.77;;;9.90;99.90;;;;;;5099458;27;20202;-79
2022/03/17 03:27:31;;;;;;;15.77;4.97;;;9.90;99.90;;;;;;5113620;28;20187;-77
2022/03/17 03:29:58;;;;;;;4.83;4.23;;;9.90;99.90;;;;;;5113241;28;20187;-76
2022/03/17 03:32:25;;;;;;;5.07;4.67;;;9.90;99.90;;;;;;5093429;28;20191;-77
2022/03/17 03:34:51;;;;;;;5.23;4.90;;;9.90;99.90;;;;;;5113342;28;20194;-76
2022/03/17 03:37:23;;;;;;;16.47;8.23;;;10.00;99.90;;;;;;5111686;28;20293;-76
2022/03/17 03:39:51;;;;;;;8.90;5.27;;;10.00;99.90;;;;;;5112979;28;20190;-77
2022/03/17 03:42:16;;;;;;;8.53;5.87;;;10.00;99.90;;;;;;5113198;28;20215;-76
2022/03/17 03:44:42;;;;;;;7.27;5.10;;;10.00;99.90;;;;;;5113156;28;20211;-75
2022/03/17 03:47:08;;;;;;;8.80;7.70;;;10.00;99.90;;;;;;5113691;28;20527;-79
2022/03/17 03:49:35;;;;;;;6.47;5.73;;;10.00;99.90;;;;;;5113216;28;20171;-76
2022/03/17 03:52:01;;;;;;;3.17;3.07;;;10.00;99.90;;;;;;5112488;28;20202;-76
2022/03/17 03:54:26;;;;;;;3.97;3.57;;;10.00;99.90;;;;;;5112426;28;20335;-76
2022/03/17 03:56:55;;;;;;;15.57;7.47;;;10.00;99.90;;;;;;5112709;28;20598;-77
2022/03/17 03:59:24;;;;;;;4.40;4.00;;;10.00;99.90;;;;;;5112450;28;20203;-77
2022/03/17 04:01:56;;;;;;;10.03;6.93;;;10.10;99.90;;;;;;5112328;28;20216;-77
2022/03/17 04:04:24;;;;;;;15.53;7.10;;;10.10;99.90;;;;;;5111038;28;20206;-77
2022/03/17 04:06:51;;;;;;;9.90;7.77;;;10.10;99.90;;;;;;5111370;28;20182;-76
2022/03/17 04:09:23;;;;;;;6.00;5.13;;;10.20;99.90;;;;;;5111158;28;20234;-76
2022/03/17 04:11:50;;;;;;;8.07;5.63;;;10.20;99.90;;;;;;5112244;28;20624;-77
2022/03/17 04:14:16;;;;;;;8.47;5.30;;;10.20;99.90;;;;;;5112209;28;20188;-75
2022/03/17 04:16:42;;;;;;;13.50;5.13;;;10.10;99.90;;;;;;5111030;28;20303;-77
2022/03/17 04:19:09;;;;;;;4.53;3.50;;;10.10;99.90;;;;;;5111625;28;20592;-77
2022/03/17 04:21:35;;;;;;;7.63;3.83;;;10.10;99.90;;;;;;5111519;28;20215;-77
2022/03/17 04:24:01;;;;;;;6.33;5.33;;;10.00;99.90;;;;;;5107196;28;20207;-77
2022/03/17 04:26:27;;;;;;;3.93;3.50;;;10.10;99.90;;;;;;5103288;28;20179;-76
2022/03/17 04:28:53;;;;;;;8.80;7.00;;;10.00;99.90;;;;;;5112019;28;20213;-76
2022/03/17 04:31:20;;;;;;;6.77;6.03;;;10.00;99.90;;;;;;5106458;28;20207;-75
2022/03/17 04:33:46;;;;;;;9.97;5.43;;;10.00;99.90;;;;;;5110150;28;20189;-77
2022/03/17 04:36:12;;;;;;;17.10;6.50;;;10.00;99.90;;;;;;5110540;28;20217;-77
2022/03/17 04:38:38;;;;;;;8.73;7.07;;;9.90;99.90;;;;;;5111751;28;20183;-77
2022/03/17 04:41:04;;;;;;;4.80;4.20;;;9.90;99.90;;;;;;5110655;28;20304;-79
2022/03/17 04:43:30;;;;;;;5.13;4.63;;;9.90;99.90;;;;;;5111580;28;20206;-76
2022/03/17 04:45:55;;;;;;;10.20;5.77;;;9.80;99.90;;;;;;5112222;28;20260;-76
2022/03/17 04:48:21;;;;;;;9.47;6.77;;;9.70;99.90;;;;;;5110495;28;20187;-77
2022/03/17 04:50:47;;;;;;;13.10;4.63;;;9.60;99.90;;;;;;5110414;28;20209;-77
2022/03/17 04:53:27;;;;;;;6.57;5.87;;;9.50;99.90;;;;;;5111351;28;20224;-76
2022/03/17 04:56:14;;;;;;;7.17;6.53;;;9.40;99.90;;;;;;5110373;28;20183;-77
2022/03/17 04:58:41;;;;;;;10.67;7.03;;;9.40;99.90;;;;;;5111812;28;20708;-76
2022/03/17 05:01:08;;;;;;;7.07;4.90;;;9.40;99.90;;;;;;5096586;28;20305;-77
2022/03/17 05:03:34;;;;;;;7.57;5.57;;;9.40;99.90;;;;;;5111392;28;20176;-77
2022/03/17 05:06:00;;;;;;;4.20;3.90;;;9.30;99.90;;;;;;5110096;28;20229;-76
2022/03/17 05:08:26;;;;;;;5.13;4.67;;;9.30;99.90;;;;;;5111674;28;20179;-77
2022/03/17 05:10:54;;;;;;;19.17;7.93;;;9.30;99.90;;;;;;5111567;28;20199;-76
2022/03/17 05:13:22;;;;;;;7.90;6.80;;;9.30;99.90;;;;;;5111535;28;20546;-76
2022/03/17 05:15:49;;;;;;;8.60;5.50;;;9.30;99.90;;;;;;5111419;28;20550;-76
2022/03/17 05:18:14;;;;;;;8.20;4.73;;;9.40;99.90;;;;;;5109709;28;20192;-77
2022/03/17 05:20:41;;;;;;;5.33;4.80;;;9.40;99.90;;;;;;5109985;28;20183;-76
2022/03/17 05:23:10;;;;;;;7.23;6.63;;;9.40;99.90;;;;;;5111765;28;20179;-76
2022/03/17 05:25:39;;;;;;;4.43;4.03;;;9.40;99.90;;;;;;5098093;28;20199;-76
2022/03/17 05:28:06;;;;;;;13.23;7.67;;;9.40;99.90;;;;;;5111712;28;20258;-76
2022/03/17 05:30:32;;;;;;;10.30;9.40;;;9.40;99.90;;;;;;5111078;28;20294;-75
2022/03/17 05:32:57;;;;;;;4.93;4.57;;;9.40;99.90;;;;;;5105700;28;20717;-76
2022/03/17 05:35:23;;;;;;;8.67;5.13;;;9.50;99.90;;;;;;5113389;28;20183;-76
2022/03/17 05:37:50;;;;;;;4.37;3.87;;;9.60;99.90;;;;;;5112354;28;20595;-76
2022/03/17 05:40:17;;;;;;;3.27;3.00;;;9.60;99.90;;;;;;5112462;28;20266;-76
2022/03/17 05:42:45;;;;;;;6.37;4.63;;;9.70;99.90;;;;;;5112916;28;20202;-76
2022/03/17 05:45:11;;;;;;;2.97;2.67;;;9.70;99.90;;;;;;5113802;28;20203;-76
2022/03/17 05:47:45;;;;;;;6.13;5.50;;;9.80;99.90;;;;;;5116860;28;20228;-76
2022/03/17 05:50:14;;;;;;;5.50;4.97;;;9.70;99.90;;;;;;5116836;28;20591;-79
2022/03/17 05:52:42;;;;;;;7.57;4.07;;;9.70;99.90;;;;;;5116145;28;20222;-79
2022/03/17 05:55:18;;;;;;;7.73;3.40;;;9.50;99.90;;;;;;5113882;28;20669;-77
2022/03/17 05:57:47;;;;;;;3.53;3.23;;;9.40;99.90;;;;;;5116620;28;20209;-76
2022/03/17 06:00:15;;;;;;;9.53;3.97;;;9.30;99.90;;;;;;5115294;28;20193;-78
2022/03/17 06:02:40;;;;;;;10.80;4.93;;;9.20;99.90;;;;;;5101280;28;20215;-79
2022/03/17 06:05:08;;;;;;;4.43;4.13;;;9.20;99.90;;;;;;5115366;28;20195;-79
2022/03/17 06:07:45;;;;;;;5.53;5.07;;;9.10;99.90;;;;;;5115860;28;20224;-78
2022/03/17 06:10:13;;;;;;;14.60;9.83;;;9.10;99.90;;;;;;5115710;28;20642;-78
2022/03/17 06:12:39;;;;;;;4.40;4.00;;;9.00;99.90;;;;;;5101955;28;20288;-79
2022/03/17 06:15:07;;;;;;;4.50;3.90;;;9.00;99.90;;;;;;5115168;28;20239;-77
2022/03/17 06:17:41;;;;;;;7.70;4.10;;;8.90;99.90;;;;;;5114066;28;20519;-77
2022/03/17 06:20:09;;;;;;;13.93;7.37;;;8.90;99.90;;;;;;5113348;28;20210;-78
2022/03/17 06:22:37;;;;;;;7.80;6.93;;;8.90;99.90;;;;;;5114086;28;20215;-77
2022/03/17 06:25:03;;;;;;;17.07;6.53;;;8.90;99.90;;;;;;5101839;28;20200;-78
2022/03/17 06:27:28;;;;;;;6.90;6.20;;;8.90;99.90;;;;;;5115545;28;20542;-78
2022/03/17 06:29:54;;;;;;;9.70;6.90;;;8.90;99.90;;;;;;5103466;28;20180;-78
2022/03/17 06:32:19;;;;;;;5.70;4.40;;;8.90;99.90;;;;;;5107773;28;20202;-79
2022/03/17 06:34:45;;;;;;;9.07;7.37;;;8.80;99.90;;;;;;5115393;28;20638;-77
2022/03/17 06:37:10;;;;;;;5.57;4.77;;;8.80;99.90;;;;;;5117269;28;20179;-78
2022/03/17 06:39:36;;;;;;;13.37;6.27;;;8.80;99.90;;;;;;5114724;28;20174;-79
2022/03/17 06:42:02;;;;;;;16.33;9.50;;;8.70;99.90;;;;;;5114382;28;20210;-78
2022/03/17 06:44:27;;;;;;;10.93;7.90;;;8.70;99.90;;;;;;5115118;28;20297;-79
2022/03/17 06:46:53;;;;;;;10.80;8.13;;;8.70;99.90;;;;;;5112944;28;20642;-78
2022/03/17 06:49:18;;;;;;;5.50;5.10;;;8.60;99.90;;;;;;5114583;28;20210;-79
2022/03/17 06:51:44;;;;;;;7.63;5.07;;;8.60;99.90;;;;;;5113755;28;20250;-78
2022/03/17 06:54:09;;;;;;;6.53;5.53;;;8.50;99.90;;;;;;5113657;28;20182;-78
2022/03/17 06:56:35;;;;;;;6.30;5.20;;;8.50;99.90;;;;;;5114240;28;20198;-79
2022/03/17 06:59:00;;;;;;;6.57;3.70;;;8.50;99.90;;;;;;5114661;28;20594;-78
2022/03/17 07:01:26;;;;;;;2.77;2.57;;;8.50;99.90;;;;;;5114233;28;20203;-78
2022/03/17 07:03:51;;;;;;;5.73;4.57;;;8.50;99.90;;;;;;5113870;28;20189;-79
2022/03/17 07:06:19;;;;;;;8.93;3.57;;;8.40;99.90;;;;;;5114193;28;20591;-78
2022/03/17 07:08:44;;;;;;;2.77;1.70;;;8.40;99.90;;;;;;5113665;28;20177;-78
2022/03/17 07:11:10;;;;;;;1.23;1.13;;;8.40;99.90;;;;;;5113923;28;20202;-79
2022/03/17 07:13:35;;;;;;;5.67;3.57;;;8.30;99.90;;;;;;5113540;28;20175;-78
2022/03/17 07:16:02;;;;;;;8.60;5.57;;;8.30;99.90;;;;;;5114327;28;20192;-79
2022/03/17 07:18:27;;;;;;;7.53;2.30;;;8.30;99.90;;;;;;5113794;28;20546;-77
2022/03/17 07:20:57;;;;;;;4.57;2.73;;;8.30;99.90;;;;;;5113413;28;20210;-79
2022/03/17 07:23:23;;;;;;;2.77;2.07;;;8.20;99.90;;;;;;5100109;28;20266;-79
2022/03/17 07:25:49;;;;;;;2.87;2.63;;;8.20;99.90;;;;;;5099556;28;20348;-79
2022/03/17 07:28:15;;;;;;;2.43;2.33;;;8.20;99.90;;;;;;5113411;28;20194;-77
2022/03/17 07:30:41;;;;;;;13.03;5.53;;;8.10;99.90;;;;;;5113080;28;20171;-77
2022/03/17 07:33:06;;;;;;;3.63;3.40;;;8.20;99.90;;;;;;5106965;28;20558;-77
2022/03/17 07:35:33;;;;;;;3.17;2.87;;;8.20;99.90;;;;;;5100828;28;20164;-77
2022/03/17 07:37:59;;;;;;;14.80;4.90;;;8.20;99.90;;;;;;5093931;28;20172;-77
2022/03/17 07:40:26;;;;;;;3.13;2.70;;;8.20;99.90;;;;;;5112565;28;20566;-77
2022/03/17 07:42:51;;;;;;;3.43;1.97;;;8.20;99.90;;;;;;5112442;28;20697;-77
2022/03/17 07:45:18;;;;;;;5.90;3.80;;;8.20;99.90;;;;;;5112644;28;20205;-77
2022/03/17 07:47:48;;;;;;;4.43;3.60;;;8.20;99.90;;;;;;5111391;28;20175;-77
2022/03/17 07:50:14;;;;;;;5.87;3.30;;;8.30;99.90;;;;;;5111466;28;20172;-77
2022/03/17 07:52:40;;;;;;;2.10;1.93;;;8.30;99.90;;;;;;5112234;28;20216;-77
2022/03/17 07:55:06;;;;;;;1.73;1.20;;;8.40;99.90;;;;;;5111150;28;20660;-77
2022/03/17 07:57:35;;;;;;;6.53;1.10;;;8.40;99.90;;;;;;5111272;28;20182;-78
2022/03/17 08:00:01;;;;;;;4.50;1.90;;;8.40;99.90;;;;;;5112637;28;20171;-77
2022/03/17 08:02:26;;;;;;;0.90;0.90;;;8.50;99.90;;;;;;5112006;28;20194;-78
2022/03/17 08:04:53;;;;;;;2.20;2.10;;;8.50;99.90;;;;;;5112141;28;20202;-78
2022/03/17 08:07:19;;;;;;;12.93;1.97;;;8.40;99.90;;;;;;5112147;28;20168;-77
2022/03/17 08:09:45;;;;;;;1.67;1.57;;;8.40;99.90;;;;;;5110792;28;20180;-77
2022/03/17 08:12:11;;;;;;;6.57;2.37;;;8.40;99.90;;;;;;5110506;28;20705;-77
2022/03/17 08:14:37;;;;;;;3.50;2.00;;;8.40;99.90;;;;;;5111904;28;20676;-78
2022/03/17 08:17:02;;;;;;;0.47;0.47;;;8.40;99.90;;;;;;5112192;28;20364;-75
2022/03/17 08:19:28;;;;;;;3.30;1.20;;;8.40;99.90;;;;;;5112089;28;20171;-78
2022/03/17 08:21:56;;;;;;;2.43;2.33;;;8.40;99.90;;;;;;5108940;22;20232;-81
2022/03/17 08:24:21;;;;;;;2.23;1.57;;;8.40;99.90;;;;;;5015331;28;20255;-80
2022/03/17 08:26:47;;;;;;;0.60;0.60;;;8.40;99.90;;;;;;5033260;28;20660;-79
2022/03/17 08:29:12;;;;;;;1.10;1.10;;;8.40;99.90;;;;;;5015646;28;20184;-81
2022/03/17 08:31:38;;;;;;;1.13;1.13;;;8.40;99.90;;;;;;5033041;28;20197;-80
2022/03/17 08:34:03;;;;;;;1.30;1.30;;;8.40;99.90;;;;;;5053569;28;20663;-80
2022/03/17 08:36:29;;;;;;;1.37;1.13;;;8.40;99.90;;;;;;5035187;28;20180;-81
2022/03/17 08:38:55;;;;;;;2.57;2.00;;;8.40;99.90;;;;;;5034838;28;20204;-80
2022/03/17 08:41:21;;;;;;;4.30;2.53;;;8.40;99.90;;;;;;5052369;28;20189;-80
2022/03/17 08:43:51;;;;;;;2.33;2.20;;;8.40;99.90;;;;;;5035729;28;20177;-80
2022/03/17 08:49:18;;;;;;;1.57;1.47;;;8.30;99.90;;;;;;5054548;28;20184;-80
2022/03/17 08:51:49;;;;;;;1.40;1.33;;;8.30;99.90;;;;;;5052579;28;20201;-80
2022/03/17 08:54:15;;;;;;;3.00;1.20;;;8.30;99.90;;;;;;5053489;28;20663;-81
2022/03/17 08:56:40;;;;;;;2.57;1.77;;;8.30;99.90;;;;;;5035532;28;20272;-81
2022/03/17 08:59:06;;;;;;;0.70;0.70;;;8.30;99.90;;;;;;5053271;28;20295;-82
2022/03/17 09:01:32;;;;;;;2.17;1.60;;;8.30;99.90;;;;;;5052527;28;20220;-81
2022/03/17 09:03:58;;;;;;;2.07;1.97;;;8.20;99.90;;;;;;5052121;28;20829;-80
2022/03/17 09:06:24;;;;;;;2.87;2.63;;;8.20;99.90;;;;;;5034859;28;20177;-81
2022/03/17 09:08:50;;;;;;;1.77;1.67;;;8.20;99.90;;;;;;5052816;28;20526;-81
2022/03/17 09:11:15;;;;;;;5.13;3.30;;;8.20;99.90;;;;;;5052792;28;20204;-82
2022/03/17 09:13:41;;;;;;;2.43;1.83;;;8.20;99.90;;;;;;5052395;28;20188;-79
2022/03/17 09:16:07;;;;;;;1.83;1.73;;;8.20;99.90;;;;;;5052815;28;20209;-80
2022/03/17 09:18:34;;;;;;;2.00;1.90;;;8.20;99.90;;;;;;5026066;28;20227;-81
2022/03/17 09:21:00;;;;;;;2.07;1.90;;;8.20;99.90;;;;;;5048108;28;20170;-82
2022/03/17 09:23:33;;;;;;;3.60;3.30;;;8.20;99.90;;;;;;5037257;28;20189;-80
2022/03/17 09:25:58;;;;;;;1.27;1.20;;;8.20;99.90;;;;;;5032552;28;20222;-81
2022/03/17 09:28:26;;;;;;;5.10;4.63;;;8.30;99.90;;;;;;5057072;28;20667;-81
2022/03/17 09:30:51;;;;;;;3.80;3.40;;;8.40;99.90;;;;;;5039018;28;20227;-82
2022/03/17 09:33:17;;;;;;;1.23;1.13;;;8.40;99.90;;;;;;5032461;28;20201;-80
2022/03/17 09:35:43;;;;;;;2.67;2.47;;;8.40;99.90;;;;;;5039116;28;20231;-81
2022/03/17 09:38:09;;;;;;;2.87;2.67;;;8.40;99.90;;;;;;5056200;28;20177;-80
2022/03/17 09:40:37;;;;;;;2.97;2.77;;;8.30;99.90;;;;;;5038512;28;20188;-81
2022/03/17 09:43:19;;;;;;;3.13;1.40;;;8.30;99.90;;;;;;5056082;28;20213;-81
2022/03/17 09:45:49;;;;;;;1.77;1.23;;;8.30;99.90;;;;;;5056372;28;20684;-80
2022/03/17 09:48:15;;;;;;;5.30;1.50;;;8.30;99.90;;;;;;5056536;28;20177;-80
2022/03/17 09:50:42;;;;;;;0.83;0.83;;;8.30;99.90;;;;;;5037845;28;20584;-81
2022/03/17 09:53:09;;;;;;;6.83;1.13;;;8.30;99.90;;;;;;5053023;28;20201;-82
2022/03/17 09:55:35;;;;;;;0.73;0.73;;;8.30;99.90;;;;;;5035068;28;20268;-81
2022/03/17 09:58:03;;;;;;;9.27;1.90;;;8.20;99.90;;;;;;5037522;28;20182;-80
2022/03/17 10:00:48;;;;;;;1.03;1.03;;;8.20;99.90;;;;;;5022750;28;20239;-80
2022/03/17 10:03:34;;;;;;;7.10;3.20;;;8.20;99.90;;;;;;5028821;28;20267;-81
2022/03/17 10:06:06;;;;;;;6.40;1.87;;;8.20;99.90;;;;;;5055273;28;20779;-80
2022/03/17 10:08:33;;;;;;;1.50;1.40;;;8.20;99.90;;;;;;5055956;28;20540;-80
2022/03/17 10:10:59;;;;;;;3.60;1.73;;;8.10;99.90;;;;;;5055322;28;20176;-82
2022/03/17 10:13:26;;;;;;;8.30;1.37;;;8.10;99.90;;;;;;5037227;28;20264;-80
2022/03/17 10:16:09;;;;;;;7.50;2.77;;;8.10;99.90;;;;;;5055463;28;20172;-79
2022/03/17 10:18:38;;;;;;;1.03;0.70;;;8.10;99.90;;;;;;5055391;28;20189;-81
2022/03/17 10:21:06;;;;;;;1.50;0.90;;;8.10;99.90;;;;;;5055598;28;20544;-80
2022/03/17 10:23:32;;;;;;;0.43;0.43;;;8.20;99.90;;;;;;5035942;28;20204;-82
2022/03/17 10:25:58;;;;;;;4.70;1.53;;;8.30;99.90;;;;;;5025361;28;20247;-81
2022/03/17 10:28:26;;;;;;;3.23;2.77;;;8.40;99.90;;;;;;5054132;28;20316;-80
2022/03/17 10:31:05;;;;;;;2.53;2.20;;;8.50;99.90;;;;;;5047520;28;20252;-82
2022/03/17 10:33:32;;;;;;;1.53;1.03;;;8.50;99.90;;;;;;5047510;28;20176;-80
2022/03/17 10:36:20;;;;;;;1.33;1.10;;;8.60;99.90;;;;;;5055066;28;20177;-80
2022/03/17 10:38:47;;;;;;;0.20;0.20;;;8.60;99.90;;;;;;5055254;28;20173;-81
2022/03/17 10:41:13;;;;;;;2.40;0.73;;;8.70;99.90;;;;;;5037888;28;20184;-80
2022/03/17 10:43:42;;;;;;;1.00;0.57;;;8.70;99.90;;;;;;5054531;28;20255;-80
2022/03/17 10:46:15;;;;;;;0.20;0.20;;;8.70;99.90;;;;;;5054742;28;20235;-80
2022/03/17 10:48:57;;;;;;;0.10;0.10;;;8.70;99.90;;;;;;5053973;28;20169;-81
2022/03/17 10:51:42;;;;;;;3.20;1.17;;;8.80;99.90;;;;;;5035728;28;20201;-80
2022/03/17 10:54:18;;;;;;;0.30;0.30;;;8.80;99.90;;;;;;5037252;28;20180;-80
2022/03/17 10:56:59;;;;;;;0.40;0.37;;;8.80;99.90;;;;;;5055067;28;20534;-81
2022/03/17 10:59:39;;;;;;;0.17;0.17;;;8.90;99.90;;;;;;5055069;28;20165;-80
2022/03/17 11:02:08;;;;;;;5.77;2.50;;;8.90;99.90;;;;;;5054225;28;20193;-80
2022/03/17 11:04:35;;;;;;;0.20;0.20;;;9.00;99.90;;;;;;5025684;28;20205;-80
2022/03/17 11:07:10;;;;;;;1.07;1.07;;;9.00;99.90;;;;;;5054607;28;20272;-80
2022/03/17 11:09:40;;;;;;;0.50;0.50;;;9.10;99.90;;;;;;5052174;28;20176;-79
2022/03/17 11:12:07;;;;;;;0.63;0.63;;;9.20;99.90;;;;;;5034527;28;20679;-81
2022/03/17 11:14:38;;;;;;;0.20;0.20;;;9.50;99.90;;;;;;5035576;28;20188;-80
2022/03/17 11:17:05;;;;;;;2.97;1.00;;;9.60;99.90;;;;;;5054914;28;20181;-81
2022/03/17 11:19:32;;;;;;;0.33;0.33;;;9.60;99.90;;;;;;5055646;28;20185;-80
2022/03/17 11:22:09;;;;;;;0.30;0.30;;;9.60;99.90;;;;;;5036790;28;20224;-80
2022/03/17 11:24:38;;;;;;;0.20;0.20;;;9.40;99.90;;;;;;5044320;28;20577;-83
2022/03/17 11:27:14;;;;;;;0.50;0.50;;;9.30;99.90;;;;;;5053156;28;20591;-82
2022/03/17 11:29:48;;;;;;;0.10;0.10;;;9.20;99.90;;;;;;5055952;28;20173;-82
2022/03/17 11:32:31;;;;;;;1.13;0.77;;;9.20;99.90;;;;;;5048710;28;20197;-80
2022/03/17 11:35:11;;;;;;;0.13;0.13;;;9.10;99.90;;;;;;5036580;28;20212;-81
2022/03/17 11:37:37;;;;;;;5.53;1.97;;;9.00;99.90;;;;;;5057360;28;20259;-83
2022/03/17 11:40:13;;;;;;;0.10;0.10;;;9.00;99.90;;;;;;5054344;28;20189;-82
2022/03/17 11:43:07;;;;;;;0.20;0.20;;;9.10;99.90;;;;;;5054344;28;20224;-82
2022/03/17 11:45:36;;;;;;;0.30;0.30;;;9.30;99.90;;;;;;5055150;28;20189;-82
2022/03/17 11:48:07;;;;;;;0.47;0.23;;;9.30;99.90;;;;;;5054776;28;20177;-80
2022/03/17 11:50:38;;;;;;;0.40;0.40;;;9.30;99.90;;;;;;5054781;28;20909;-81
2022/03/17 11:53:13;;;;;;;3.00;0.80;;;9.30;99.90;;;;;;5054265;28;20193;-82
2022/03/17 11:55:42;;;;;;;0.40;0.40;;;9.40;99.90;;;;;;5054834;28;20242;-82
2022/03/17 11:58:24;;;;;;;0.17;0.17;;;9.40;99.90;;;;;;5055130;28;20199;-82
2022/03/17 12:01:23;;;;;;;3.23;0.40;;;9.50;99.90;;;;;;5055767;28;20191;-81
2022/03/17 12:04:03;;;;;;;1.63;0.60;;;9.40;99.90;;;;;;5047043;28;20184;-81
2022/03/17 12:06:31;;;;;;;0.63;0.63;;;9.50;99.90;;;;;;5038903;28;20250;-82
2022/03/17 12:08:59;;;;;;;2.63;1.50;;;9.60;99.90;;;;;;5055387;28;20176;-82
2022/03/17 12:11:26;;;;;;;0.27;0.27;;;9.70;99.90;;;;;;5054709;28;20197;-83
2022/03/17 12:14:10;;;;;;;0.47;0.47;;;9.80;99.90;;;;;;5055350;28;20280;-81
2022/03/17 12:16:46;;;;;;;1.50;1.40;;;10.00;99.90;;;;;;5047067;28;20656;-80
2022/03/17 12:19:26;;;;;;;0.73;0.73;;;10.00;99.90;;;;;;5039273;28;20188;-80
2022/03/17 12:21:57;;;;;;;0.37;0.37;;;10.00;99.90;;;;;;5052465;28;20584;-80
2022/03/17 12:24:49;;;;;;;0.30;0.30;;;10.20;99.90;;;;;;5046346;28;20224;-82
2022/03/17 12:27:26;;;;;;;0.53;0.53;;;10.20;99.90;;;;;;5031554;28;20220;-80
2022/03/17 12:30:09;;;;;;;0.10;0.10;;;10.30;99.90;;;;;;5028664;28;20664;-82
2022/03/17 12:32:38;;;;;;;0.70;0.67;;;10.30;99.90;;;;;;5048075;28;20190;-81
2022/03/17 12:35:05;;;;;;;8.03;1.90;;;10.40;99.90;;;;;;5035395;28;20185;-81
2022/03/17 12:37:33;;;;;;;2.47;1.50;;;10.30;99.90;;;;;;5052376;28;20200;-80
2022/03/17 12:40:03;;;;;;;1.37;1.27;;;10.30;99.90;;;;;;5035271;28;20276;-81
2022/03/17 12:42:30;;;;;;;0.40;0.40;;;10.40;99.90;;;;;;5053129;28;20193;-82
2022/03/17 12:45:01;;;;;;;1.27;0.57;;;10.60;99.90;;;;;;5034848;28;20748;-83
2022/03/17 12:47:29;;;;;;;0.10;0.10;;;10.70;99.90;;;;;;5052263;28;20174;-82
2022/03/17 12:49:56;;;;;;;0.20;0.20;;;10.60;99.90;;;;;;5053465;28;20174;-83
2022/03/17 12:52:33;;;;;;;3.40;0.80;;;10.50;99.90;;;;;;5040363;28;20282;-81
2022/03/17 12:55:00;;;;;;;0.83;0.83;;;10.40;99.90;;;;;;5052070;28;20612;-80
2022/03/17 12:57:30;;;;;;;1.13;1.03;;;10.50;99.90;;;;;;5052850;28;20195;-80
2022/03/17 12:59:57;;;;;;;0.90;0.90;;;10.50;99.90;;;;;;5052455;28;20182;-82
2022/03/17 13:02:24;;;;;;;1.40;0.97;;;10.60;99.90;;;;;;5034342;28;20200;-82
2022/03/17 13:04:54;;;;;;;0.47;0.33;;;10.70;99.90;;;;;;5052527;28;20198;-81
2022/03/17 13:07:23;;;;;;;0.30;0.30;;;10.50;99.90;;;;;;5034776;28;20184;-82